Royal Prince — WCX8037 — position and weather

sailwx.info

Track history (hours):
 
Tides and Currents Weather Stations Pressure Air Temp Water Temp Dewpoint Dewpoint Depression Visibility Wind Speed Wind Dir Waves Ship Positions

Royal Prince

Owner: Golden Gate Scenic Steamship Corp, SAN FRANCISCO, CA. More information available from US FCC via Universal Licensing System and Coast Guard Vessel Documentation Center.

Last reported at 2016-Apr-28 19:33 UTC. Time now 2016-Apr-28 19:47 UTC.
Position N 37°49' W 122°25'.

; draft 3 m.

Type: Passenger vessel. MMSI: 366975760.

Date/timePositionNaut miles runAvg speedWind from/ knotsBaromVisibWave heightAir tempDewpointWater temp
2016-Apr-28 19:33N 37°49' W 122°25'2 2.4
2016-Apr-28 18:33N 37°49' W 122°28'1 1.1
2016-Apr-28 17:33N 37°50' W 122°27'2 1.7
2016-Apr-28 16:33N 37°49' W 122°25'0 0.0
2016-Apr-28 01:05N 37°49' W 122°25'2 3.0
2016-Apr-28 00:33N 37°50' W 122°26'1 1.4
2016-Apr-27 23:33N 37°49' W 122°25'1 0.7
2016-Apr-27 22:33N 37°49' W 122°25'0 0.1
2016-Apr-27 21:33N 37°49' W 122°25'3 3.1
2016-Apr-27 20:33N 37°49' W 122°29'3 3.1
2016-Apr-27 19:33N 37°49' W 122°25'2 2.2
2016-Apr-27 18:33N 37°49' W 122°28'1 0.5
2016-Apr-27 17:33N 37°49' W 122°27'2 1.9
2016-Apr-27 16:33N 37°49' W 122°25'0 0.0
2016-Apr-27 15:33N 37°49' W 122°25'0 0.0
2016-Apr-27 01:08N 37°49' W 122°25'2 2.8
2016-Apr-27 00:33N 37°50' W 122°26'1 1.3
2016-Apr-26 23:33N 37°49' W 122°25'1 0.8
2016-Apr-26 22:33N 37°49' W 122°25'0 0.0
2016-Apr-26 21:33N 37°49' W 122°25'3 2.8
2016-Apr-26 20:33N 37°49' W 122°28'3 2.8
2016-Apr-26 19:33N 37°49' W 122°25'2 2.3
2016-Apr-26 18:33N 37°49' W 122°28'1 1.0
2016-Apr-26 17:33N 37°50' W 122°27'2 0.1
2016-Apr-26 01:13N 37°49' W 122°25'2 2.8
2016-Apr-26 00:33N 37°49' W 122°27'2 1.9
2016-Apr-25 23:33N 37°49' W 122°25'1 0.8
2016-Apr-25 22:33N 37°49' W 122°25'0 0.1
2016-Apr-25 21:33N 37°49' W 122°25'3 3.0
2016-Apr-25 20:33N 37°49' W 122°29'3 3.0
2016-Apr-25 19:33N 37°49' W 122°25'2 2.0
2016-Apr-25 18:33N 37°49' W 122°27'1 0.8
2016-Apr-25 17:33N 37°50' W 122°27'2 0.1
2016-Apr-25 01:13N 37°49' W 122°25'2 2.6
2016-Apr-25 00:33N 37°50' W 122°27'1 1.2
2016-Apr-24 23:33N 37°49' W 122°25'1 0.9
2016-Apr-24 22:33N 37°49' W 122°25'0 0.0
2016-Apr-24 21:33N 37°49' W 122°25'2 1.8
2016-Apr-24 20:33N 37°49' W 122°27'2 1.8
2016-Apr-24 19:33N 37°49' W 122°25'2 1.7
2016-Apr-24 18:33N 37°49' W 122°27'1 0.7
2016-Apr-24 17:33N 37°50' W 122°27'2 0.1
2016-Apr-24 01:08N 37°49' W 122°25'2 3.4
2016-Apr-24 00:33N 37°49' W 122°27'2 2.0
2016-Apr-23 23:33N 37°49' W 122°25'1 0.6
2016-Apr-23 22:33N 37°49' W 122°25'0 0.0
2016-Apr-23 21:33N 37°49' W 122°25'3 3.0
2016-Apr-23 20:33N 37°49' W 122°29'3 3.0
2016-Apr-23 19:33N 37°49' W 122°25'2 2.2
2016-Apr-23 18:33N 37°49' W 122°28'1 0.8
2016-Apr-23 17:33N 37°50' W 122°27'2 1.8
2016-Apr-23 16:33N 37°49' W 122°25'0 0.0
2016-Apr-23 01:04N 37°49' W 122°25'2 3.6
2016-Apr-23 00:33N 37°50' W 122°27'2 1.9
2016-Apr-22 23:33N 37°49' W 122°24'1 0.7
2016-Apr-22 22:33N 37°49' W 122°25'0 0.0
2016-Apr-22 21:33N 37°49' W 122°25'3 3.2
2016-Apr-22 20:33N 37°49' W 122°29'3 3.2
2016-Apr-22 19:34N 37°49' W 122°25'2 2.4
2016-Apr-22 18:33N 37°49' W 122°28'1 0.8
2016-Apr-22 17:33N 37°50' W 122°27'2 2.0
2016-Apr-22 16:34N 37°49' W 122°25'0 0.0
2016-Apr-22 01:09N 37°49' W 122°25'2 3.0
2016-Apr-22 00:33N 37°50' W 122°27'2 1.7
2016-Apr-21 23:33N 37°49' W 122°25'1 0.7
2016-Apr-21 22:34N 37°49' W 122°25'0 0.1
2016-Apr-21 21:33N 37°49' W 122°25'3 3.1
2016-Apr-21 20:33N 37°49' W 122°29'3 3.1
2016-Apr-21 19:34N 37°49' W 122°25'2 2.4
2016-Apr-21 18:34N 37°49' W 122°28'1 1.0
2016-Apr-21 17:34N 37°50' W 122°27'2 1.8
2016-Apr-21 16:34N 37°49' W 122°25'0 0.0
2016-Apr-21 01:04N 37°49' W 122°25'2 3.7
2016-Apr-21 00:33N 37°49' W 122°27'2 2.0
2016-Apr-20 23:33N 37°49' W 122°25'1 0.6
2016-Apr-20 22:33N 37°49' W 122°25'0 0.1
2016-Apr-20 21:33N 37°49' W 122°25'3 3.1
2016-Apr-20 20:33N 37°49' W 122°29'3 3.2
2016-Apr-20 19:33N 37°49' W 122°25'2 2.1
2016-Apr-20 18:33N 37°49' W 122°28'1 0.9
2016-Apr-20 17:33N 37°50' W 122°27'2 0.1
2016-Apr-20 01:11N 37°49' W 122°25'2 2.8
2016-Apr-20 00:33N 37°50' W 122°27'2 1.9
2016-Apr-19 23:33N 37°49' W 122°24'0 0.5
2016-Apr-19 22:34N 37°49' W 122°25'0 0.1
2016-Apr-19 21:33N 37°49' W 122°25'3 3.0
2016-Apr-19 20:33N 37°49' W 122°29'3 3.1
2016-Apr-19 19:33N 37°49' W 122°25'3 2.7
2016-Apr-19 18:34N 37°49' W 122°28'1 1.2
2016-Apr-19 17:34N 37°50' W 122°27'2 0.1
2016-Apr-19 01:16N 37°49' W 122°25'2 2.9
2016-Apr-19 00:33N 37°49' W 122°27'2 2.1
2016-Apr-18 23:33N 37°49' W 122°25'1 0.7
2016-Apr-18 22:33N 37°49' W 122°25'0 0.1
2016-Apr-18 21:33N 37°49' W 122°25'3 2.7
2016-Apr-18 20:33N 37°49' W 122°28'  
Track history (hours):
 
Tides and Currents Weather Stations Pressure Air Temp Water Temp Dewpoint Dewpoint Depression Visibility Wind Speed Wind Dir Waves Ship Positions

Royal Prince

Owner: Golden Gate Scenic Steamship Corp, SAN FRANCISCO, CA. More information available from US FCC via Universal Licensing System and Coast Guard Vessel Documentation Center.

Last reported at 2016-Apr-28 19:33 UTC. Time now 2016-Apr-28 19:47 UTC.
Position N 37°49' W 122°25'.

; draft 3 m.

Type: Passenger vessel. MMSI: 366975760.

Date/timePositionNaut miles runAvg speedWind from/ knotsBaromVisibWave heightAir tempDewpointWater temp
2016-Apr-28 19:33N 37°49' W 122°25'2 2.4
2016-Apr-28 18:33N 37°49' W 122°28'1 1.1
2016-Apr-28 17:33N 37°50' W 122°27'2 1.7
2016-Apr-28 16:33N 37°49' W 122°25'0 0.0
2016-Apr-28 01:05N 37°49' W 122°25'2 3.0
2016-Apr-28 00:33N 37°50' W 122°26'1 1.4
2016-Apr-27 23:33N 37°49' W 122°25'1 0.7
2016-Apr-27 22:33N 37°49' W 122°25'0 0.1
2016-Apr-27 21:33N 37°49' W 122°25'3 3.1
2016-Apr-27 20:33N 37°49' W 122°29'3 3.1
2016-Apr-27 19:33N 37°49' W 122°25'2 2.2
2016-Apr-27 18:33N 37°49' W 122°28'1 0.5
2016-Apr-27 17:33N 37°49' W 122°27'2 1.9
2016-Apr-27 16:33N 37°49' W 122°25'0 0.0
2016-Apr-27 15:33N 37°49' W 122°25'0 0.0
2016-Apr-27 01:08N 37°49' W 122°25'2 2.8
2016-Apr-27 00:33N 37°50' W 122°26'1 1.3
2016-Apr-26 23:33N 37°49' W 122°25'1 0.8
2016-Apr-26 22:33N 37°49' W 122°25'0 0.0
2016-Apr-26 21:33N 37°49' W 122°25'3 2.8
2016-Apr-26 20:33N 37°49' W 122°28'3 2.8
2016-Apr-26 19:33N 37°49' W 122°25'2 2.3
2016-Apr-26 18:33N 37°49' W 122°28'1 1.0
2016-Apr-26 17:33N 37°50' W 122°27'2 0.1
2016-Apr-26 01:13N 37°49' W 122°25'2 2.8
2016-Apr-26 00:33N 37°49' W 122°27'2 1.9
2016-Apr-25 23:33N 37°49' W 122°25'1 0.8
2016-Apr-25 22:33N 37°49' W 122°25'0 0.1
2016-Apr-25 21:33N 37°49' W 122°25'3 3.0
2016-Apr-25 20:33N 37°49' W 122°29'3 3.0
2016-Apr-25 19:33N 37°49' W 122°25'2 2.0
2016-Apr-25 18:33N 37°49' W 122°27'1 0.8
2016-Apr-25 17:33N 37°50' W 122°27'2 0.1
2016-Apr-25 01:13N 37°49' W 122°25'2 2.6
2016-Apr-25 00:33N 37°50' W 122°27'1 1.2
2016-Apr-24 23:33N 37°49' W 122°25'1 0.9
2016-Apr-24 22:33N 37°49' W 122°25'0 0.0
2016-Apr-24 21:33N 37°49' W 122°25'2 1.8
2016-Apr-24 20:33N 37°49' W 122°27'2 1.8
2016-Apr-24 19:33N 37°49' W 122°25'2 1.7
2016-Apr-24 18:33N 37°49' W 122°27'1 0.7
2016-Apr-24 17:33N 37°50' W 122°27'2 0.1
2016-Apr-24 01:08N 37°49' W 122°25'2 3.4
2016-Apr-24 00:33N 37°49' W 122°27'2 2.0
2016-Apr-23 23:33N 37°49' W 122°25'1 0.6
2016-Apr-23 22:33N 37°49' W 122°25'0 0.0
2016-Apr-23 21:33N 37°49' W 122°25'3 3.0
2016-Apr-23 20:33N 37°49' W 122°29'3 3.0
2016-Apr-23 19:33N 37°49' W 122°25'2 2.2
2016-Apr-23 18:33N 37°49' W 122°28'1 0.8
2016-Apr-23 17:33N 37°50' W 122°27'2 1.8
2016-Apr-23 16:33N 37°49' W 122°25'0 0.0
2016-Apr-23 01:04N 37°49' W 122°25'2 3.6
2016-Apr-23 00:33N 37°50' W 122°27'2 1.9
2016-Apr-22 23:33N 37°49' W 122°24'1 0.7
2016-Apr-22 22:33N 37°49' W 122°25'0 0.0
2016-Apr-22 21:33N 37°49' W 122°25'3 3.2
2016-Apr-22 20:33N 37°49' W 122°29'3 3.2
2016-Apr-22 19:34N 37°49' W 122°25'2 2.4
2016-Apr-22 18:33N 37°49' W 122°28'1 0.8
2016-Apr-22 17:33N 37°50' W 122°27'2 2.0
2016-Apr-22 16:34N 37°49' W 122°25'0 0.0
2016-Apr-22 01:09N 37°49' W 122°25'2 3.0
2016-Apr-22 00:33N 37°50' W 122°27'2 1.7
2016-Apr-21 23:33N 37°49' W 122°25'1 0.7
2016-Apr-21 22:34N 37°49' W 122°25'0 0.1
2016-Apr-21 21:33N 37°49' W 122°25'3 3.1
2016-Apr-21 20:33N 37°49' W 122°29'3 3.1
2016-Apr-21 19:34N 37°49' W 122°25'2 2.4
2016-Apr-21 18:34N 37°49' W 122°28'1 1.0
2016-Apr-21 17:34N 37°50' W 122°27'2 1.8
2016-Apr-21 16:34N 37°49' W 122°25'0 0.0
2016-Apr-21 01:04N 37°49' W 122°25'2 3.7
2016-Apr-21 00:33N 37°49' W 122°27'2 2.0
2016-Apr-20 23:33N 37°49' W 122°25'1 0.6
2016-Apr-20 22:33N 37°49' W 122°25'0 0.1
2016-Apr-20 21:33N 37°49' W 122°25'3 3.1
2016-Apr-20 20:33N 37°49' W 122°29'3 3.2
2016-Apr-20 19:33N 37°49' W 122°25'2 2.1
2016-Apr-20 18:33N 37°49' W 122°28'1 0.9
2016-Apr-20 17:33N 37°50' W 122°27'2 0.1
2016-Apr-20 01:11N 37°49' W 122°25'2 2.8
2016-Apr-20 00:33N 37°50' W 122°27'2 1.9
2016-Apr-19 23:33N 37°49' W 122°24'0 0.5
2016-Apr-19 22:34N 37°49' W 122°25'0 0.1
2016-Apr-19 21:33N 37°49' W 122°25'3 3.0
2016-Apr-19 20:33N 37°49' W 122°29'3 3.1
2016-Apr-19 19:33N 37°49' W 122°25'3 2.7
2016-Apr-19 18:34N 37°49' W 122°28'1 1.2
2016-Apr-19 17:34N 37°50' W 122°27'2 0.1
2016-Apr-19 01:16N 37°49' W 122°25'2 2.9
2016-Apr-19 00:33N 37°49' W 122°27'2 2.1
2016-Apr-18 23:33N 37°49' W 122°25'1 0.7
2016-Apr-18 22:33N 37°49' W 122°25'0 0.1
2016-Apr-18 21:33N 37°49' W 122°25'3 2.7
2016-Apr-18 20:33N 37°49' W 122°28'  

Dump ship's entire track history